createdAt,value
2023-02-17T00:01:12.406Z,102890.09
2023-02-17T00:03:39.646Z,102888.44
2023-02-17T00:06:08.874Z,102886.97
2023-02-17T00:08:35.775Z,102882.72
2023-02-17T00:11:02.656Z,102879.34
2023-02-17T00:13:29.512Z,102881.38
2023-02-17T00:15:56.450Z,102886.56
2023-02-17T00:18:23.746Z,102893.22
2023-02-17T00:20:50.545Z,102895.00
2023-02-17T00:23:17.761Z,102893.22
2023-02-17T00:25:44.572Z,102894.69
2023-02-17T00:28:11.312Z,102891.53
2023-02-17T00:30:39.397Z,102910.34
2023-02-17T00:33:06.536Z,102899.59
2023-02-17T00:35:33.458Z,102903.16
2023-02-17T00:38:00.261Z,102901.34
2023-02-17T00:40:27.146Z,102891.91
2023-02-17T00:42:54.966Z,102899.41
2023-02-17T00:45:21.957Z,102897.09
2023-02-17T00:47:48.925Z,102891.09
2023-02-17T00:50:17.098Z,102894.47
2023-02-17T00:52:43.931Z,102888.75
2023-02-17T00:55:10.732Z,102885.50
2023-02-17T00:57:37.619Z,102898.16
2023-02-17T01:00:05.118Z,102891.53
2023-02-17T01:02:34.369Z,102895.00
2023-02-17T01:05:01.211Z,102887.38
2023-02-17T01:07:28.050Z,102893.31
2023-02-17T01:09:54.799Z,102907.38
2023-02-17T01:12:22.103Z,102898.38
2023-02-17T01:14:49.115Z,102901.88
2023-02-17T01:17:15.953Z,102893.25
2023-02-17T01:19:54.449Z,102894.00
2023-02-17T01:22:28.758Z,102890.44
2023-02-17T01:24:55.600Z,102891.94
2023-02-17T01:27:22.302Z,102893.66
2023-02-17T01:29:49.222Z,102886.91
2023-02-17T01:32:16.124Z,102881.94
2023-02-17T01:34:42.859Z,102883.22
2023-02-17T01:37:09.557Z,102883.44
2023-02-17T01:39:36.451Z,102886.09
2023-02-17T01:42:03.189Z,102884.34
2023-02-17T01:44:32.959Z,102873.06
2023-02-17T01:46:59.776Z,102876.03
2023-02-17T01:49:35.727Z,102874.94
2023-02-17T01:52:16.817Z,102869.19
2023-02-17T01:54:55.241Z,102872.91
2023-02-17T01:57:25.807Z,102870.84
2023-02-17T01:59:54.011Z,102872.34
2023-02-17T02:02:20.935Z,102874.06
2023-02-17T02:04:51.434Z,102865.94
2023-02-17T02:07:22.526Z,102868.78
2023-02-17T02:09:56.067Z,102861.22
2023-02-17T02:12:26.251Z,102856.94
2023-02-17T02:14:56.636Z,102861.94
2023-02-17T02:18:00.359Z,102851.47
2023-02-17T02:20:42.194Z,102848.28
2023-02-17T02:23:33.457Z,102844.50
2023-02-17T02:26:31.257Z,102841.34
2023-02-17T02:29:26.047Z,102828.94
2023-02-17T02:32:02.091Z,102817.34
2023-02-17T02:35:01.026Z,102819.38
2023-02-17T02:37:35.276Z,102827.50
2023-02-17T02:40:06.727Z,102821.69
2023-02-17T02:42:35.308Z,102812.25
2023-02-17T02:45:02.489Z,102809.28
2023-02-17T02:47:46.843Z,102807.75
2023-02-17T02:50:26.239Z,102803.69
2023-02-17T02:53:19.554Z,102796.25
2023-02-17T02:56:01.374Z,102796.38
2023-02-17T02:59:08.357Z,102797.03
2023-02-17T03:01:46.070Z,102796.84
2023-02-17T03:04:36.473Z,102809.75
2023-02-17T03:07:23.019Z,102810.19
2023-02-17T03:09:56.550Z,102800.81
2023-02-17T03:12:24.022Z,102804.13
2023-02-17T03:14:54.806Z,102804.75
2023-02-17T03:17:22.839Z,102808.34
2023-02-17T03:19:51.003Z,102811.44
2023-02-17T03:22:31.599Z,102806.16
2023-02-17T03:25:00.173Z,102812.69
2023-02-17T03:27:28.066Z,102813.22
2023-02-17T03:29:55.233Z,102816.09
2023-02-17T03:32:22.397Z,102817.28
2023-02-17T03:34:49.229Z,102812.13
2023-02-17T03:37:16.021Z,102820.91
2023-02-17T03:39:42.761Z,102817.63
2023-02-17T03:42:09.555Z,102819.41
2023-02-17T03:44:36.365Z,102820.19
2023-02-17T03:47:03.191Z,102828.22
2023-02-17T03:49:30.102Z,102828.50
2023-02-17T03:51:58.272Z,102826.84
2023-02-17T03:54:25.833Z,102828.34
2023-02-17T03:56:52.613Z,102831.09
2023-02-17T03:59:19.437Z,102823.91
2023-02-17T04:01:46.241Z,102825.03
2023-02-17T04:04:13.149Z,102826.19
2023-02-17T04:06:39.950Z,102819.22
2023-02-17T04:09:06.660Z,102825.16
2023-02-17T04:11:33.393Z,102831.84
2023-02-17T04:14:00.198Z,102821.97
2023-02-17T04:16:26.998Z,102814.97
2023-02-17T04:18:53.820Z,102821.19
2023-02-17T04:21:20.612Z,102821.09
2023-02-17T04:23:47.423Z,102823.16
2023-02-17T04:26:14.204Z,102821.66
2023-02-17T04:28:42.837Z,102822.97
2023-02-17T04:31:10.083Z,102829.56
2023-02-17T04:33:38.036Z,102829.94
2023-02-17T04:36:06.134Z,102824.38
2023-02-17T04:38:33.623Z,102830.97
2023-02-17T04:41:01.115Z,102824.00
2023-02-17T04:43:28.188Z,102833.69
2023-02-17T04:45:55.423Z,102831.16
2023-02-17T04:48:22.794Z,102836.06
2023-02-17T04:50:49.861Z,102829.22
2023-02-17T04:53:16.760Z,102834.84
2023-02-17T04:55:43.836Z,102840.50
2023-02-17T04:58:10.866Z,102835.91
2023-02-17T05:00:37.808Z,102847.13
2023-02-17T05:03:04.608Z,102842.41
2023-02-17T05:05:31.452Z,102847.69
2023-02-17T05:07:58.338Z,102849.75
2023-02-17T05:10:25.057Z,102853.63
2023-02-17T05:12:52.480Z,102853.16
2023-02-17T05:15:19.532Z,102857.50
2023-02-17T05:17:46.776Z,102860.63
2023-02-17T05:20:13.709Z,102857.00
2023-02-17T05:22:40.445Z,102864.47
2023-02-17T05:25:07.739Z,102861.34
2023-02-17T05:27:34.894Z,102860.41
2023-02-17T05:30:01.951Z,102856.38
2023-02-17T05:32:28.771Z,102866.84
2023-02-17T05:34:55.578Z,102863.63
2023-02-17T05:37:22.304Z,102868.63
2023-02-17T05:39:49.036Z,102866.25
2023-02-17T05:42:15.872Z,102865.72
2023-02-17T05:44:42.648Z,102860.22
2023-02-17T05:47:09.512Z,102866.53
2023-02-17T05:49:36.254Z,102879.94
2023-02-17T05:52:03.162Z,102871.16
2023-02-17T05:54:29.964Z,102872.16
2023-02-17T05:56:56.713Z,102879.09
2023-02-17T05:59:23.711Z,102879.09
2023-02-17T06:01:50.454Z,102872.69
2023-02-17T06:04:17.361Z,102878.06
2023-02-17T06:06:44.192Z,102880.81
2023-02-17T06:09:10.972Z,102880.38
2023-02-17T06:11:37.758Z,102876.84
2023-02-17T06:14:04.636Z,102880.19
2023-02-17T06:16:31.493Z,102877.78
2023-02-17T06:19:00.125Z,102888.50
2023-02-17T06:21:26.882Z,102882.41
2023-02-17T06:23:53.654Z,102885.25
2023-02-17T06:26:20.516Z,102879.19
2023-02-17T06:28:47.314Z,102900.00
2023-02-17T06:31:14.176Z,102899.41
2023-02-17T06:33:41.004Z,102907.41
2023-02-17T06:36:08.582Z,102913.97
2023-02-17T06:38:35.508Z,102903.00
2023-02-17T06:41:02.477Z,102897.56
2023-02-17T06:43:29.201Z,102911.25
2023-02-17T06:45:55.988Z,102902.84
2023-02-17T06:48:22.970Z,102904.72
2023-02-17T06:50:52.029Z,102907.44
2023-02-17T06:53:18.828Z,102911.25
2023-02-17T06:55:45.606Z,102922.25
2023-02-17T06:58:12.347Z,102925.78
2023-02-17T07:00:39.088Z,102928.59
2023-02-17T07:03:05.881Z,102930.63
2023-02-17T07:05:36.223Z,102925.53
2023-02-17T07:08:07.499Z,102937.94
2023-02-17T07:10:34.327Z,102942.09
2023-02-17T07:13:01.090Z,102936.03
2023-02-17T07:15:27.986Z,102934.19
2023-02-17T07:17:54.780Z,102944.75
2023-02-17T07:20:21.660Z,102948.19
2023-02-17T07:22:48.438Z,102942.06
2023-02-17T07:25:15.273Z,102949.94
2023-02-17T07:27:42.100Z,102942.25
2023-02-17T07:30:09.465Z,102955.38
2023-02-17T07:32:36.204Z,102957.50
2023-02-17T07:35:02.985Z,102958.47
2023-02-17T07:37:29.793Z,102964.28
2023-02-17T07:39:57.336Z,102968.44
2023-02-17T07:42:24.381Z,102960.44
2023-02-17T07:44:51.743Z,102964.56
2023-02-17T07:47:18.632Z,102962.84
2023-02-17T07:49:45.413Z,102977.41
2023-02-17T07:52:12.289Z,102973.03
2023-02-17T07:54:38.979Z,102971.69
2023-02-17T07:57:05.680Z,102971.09
2023-02-17T07:59:32.401Z,102974.09
2023-02-17T08:01:59.179Z,102970.41
2023-02-17T08:04:26.080Z,102962.91
2023-02-17T08:06:52.836Z,102957.66
2023-02-17T08:09:37.891Z,102974.44
2023-02-17T08:12:23.266Z,102966.03
2023-02-17T08:14:50.043Z,102966.44
2023-02-17T08:17:16.806Z,102969.53
2023-02-17T08:19:48.339Z,102976.53
2023-02-17T08:22:17.665Z,102977.16
2023-02-17T08:24:44.913Z,102973.75
2023-02-17T08:27:12.122Z,102981.16
2023-02-17T08:29:38.868Z,102981.47
2023-02-17T08:32:05.829Z,102978.03
2023-02-17T08:34:35.918Z,102987.09
2023-02-17T08:37:04.910Z,102980.09
2023-02-17T08:39:33.031Z,102978.69
2023-02-17T08:42:00.308Z,102975.06
2023-02-17T08:44:27.409Z,102973.00
2023-02-17T08:46:54.188Z,102977.03
2023-02-17T08:49:23.853Z,102976.72
2023-02-17T08:51:51.385Z,102975.97
2023-02-17T08:54:19.058Z,102979.78
2023-02-17T08:56:45.913Z,102986.28
2023-02-17T08:59:13.090Z,102990.34
2023-02-17T09:01:41.608Z,102989.06
2023-02-17T09:04:09.910Z,102996.22
2023-02-17T09:06:41.092Z,102995.72
2023-02-17T09:09:10.073Z,102996.81
2023-02-17T09:11:37.625Z,102989.00
2023-02-17T09:14:05.702Z,103000.00
2023-02-17T09:16:32.591Z,103005.94
2023-02-17T09:18:59.565Z,102998.16
2023-02-17T09:21:26.735Z,103001.13
2023-02-17T09:23:56.517Z,103010.63
2023-02-17T09:26:23.579Z,103002.16
2023-02-17T09:28:50.622Z,103012.50
2023-02-17T09:31:24.546Z,103006.72
2023-02-17T09:33:51.743Z,103020.25
2023-02-17T09:36:21.835Z,103017.28
2023-02-17T09:38:49.486Z,103010.50
2023-02-17T09:41:35.140Z,103013.41
2023-02-17T09:44:02.420Z,103009.53
2023-02-17T09:46:59.518Z,103003.22
2023-02-17T09:49:36.528Z,102990.31
2023-02-17T09:52:06.143Z,103004.81
2023-02-17T09:55:30.656Z,102994.06
2023-02-17T09:58:06.916Z,103004.72
2023-02-17T10:00:40.487Z,103001.09
2023-02-17T10:03:31.190Z,102997.25
2023-02-17T10:06:09.193Z,102996.00
2023-02-17T10:08:49.010Z,102993.28
2023-02-17T10:11:36.381Z,102998.97
2023-02-17T10:14:09.909Z,102987.81
2023-02-17T10:16:44.258Z,102991.28
2023-02-17T10:19:17.360Z,102988.31
2023-02-17T10:21:51.204Z,102986.50
2023-02-17T10:24:18.045Z,102993.66
2023-02-17T10:26:58.966Z,102990.88
2023-02-17T10:29:50.145Z,102991.38
2023-02-17T10:32:25.869Z,102994.91
2023-02-17T10:35:27.346Z,102987.84
2023-02-17T10:38:14.597Z,102988.25
2023-02-17T10:40:45.035Z,102984.53
2023-02-17T10:43:24.905Z,102989.69
2023-02-17T10:45:51.879Z,102994.47
2023-02-17T10:48:24.774Z,102985.22
2023-02-17T10:50:52.455Z,102982.13
2023-02-17T10:53:26.135Z,102983.47
2023-02-17T10:56:10.862Z,102979.94
2023-02-17T10:59:04.315Z,102978.13
2023-02-17T11:01:31.251Z,102977.56
2023-02-17T11:04:13.810Z,102969.31
2023-02-17T11:06:50.057Z,102968.44
2023-02-17T11:09:29.490Z,102971.66
2023-02-17T11:12:15.400Z,102961.09
2023-02-17T11:14:48.619Z,102962.66
2023-02-17T11:17:35.362Z,102954.78
2023-02-17T11:20:07.321Z,102951.47
2023-02-17T11:22:36.270Z,102945.69
2023-02-17T11:25:07.501Z,102941.38
2023-02-17T11:27:34.315Z,102939.16
2023-02-17T11:30:14.849Z,102941.41
2023-02-17T11:32:41.629Z,102934.28
2023-02-17T11:35:22.786Z,102930.00
2023-02-17T11:37:49.540Z,102921.72
2023-02-17T11:40:27.890Z,102917.59
2023-02-17T11:43:03.423Z,102909.78
2023-02-17T11:45:51.002Z,102912.75
2023-02-17T11:49:00.614Z,102899.41
2023-02-17T11:51:52.436Z,102910.41
2023-02-17T11:54:47.038Z,102902.91
2023-02-17T11:57:38.501Z,102904.00
2023-02-17T12:00:11.061Z,102899.38
2023-02-17T12:03:21.585Z,102894.63
2023-02-17T12:06:00.143Z,102892.31
2023-02-17T12:08:51.702Z,102893.88
2023-02-17T12:11:21.353Z,102890.56
2023-02-17T12:14:00.169Z,102889.81
2023-02-17T12:17:14.773Z,102888.16
2023-02-17T12:19:44.125Z,102885.34
2023-02-17T12:22:29.964Z,102878.94
2023-02-17T12:24:56.743Z,102875.59
2023-02-17T12:27:49.476Z,102873.47
2023-02-17T12:30:35.008Z,102876.47
2023-02-17T12:33:53.005Z,102878.28
2023-02-17T12:36:23.602Z,102871.38
2023-02-17T12:38:56.149Z,102865.50
2023-02-17T12:41:27.570Z,102866.69
2023-02-17T12:43:59.955Z,102869.16
2023-02-17T12:46:38.760Z,102863.09
2023-02-17T12:49:42.350Z,102858.91
2023-02-17T12:52:29.870Z,102861.13
2023-02-17T12:55:19.880Z,102852.41
2023-02-17T12:57:55.880Z,102849.88
2023-02-17T13:00:29.193Z,102850.59
2023-02-17T13:03:00.137Z,102844.53
2023-02-17T13:05:37.284Z,102844.03
2023-02-17T13:08:16.135Z,102839.16
2023-02-17T13:10:43.052Z,102837.97
2023-02-17T13:13:09.768Z,102831.94
2023-02-17T13:15:38.472Z,102833.44
2023-02-17T13:18:11.461Z,102829.09
2023-02-17T13:20:45.704Z,102831.25
2023-02-17T13:23:25.905Z,102822.88
2023-02-17T13:26:22.692Z,102824.72
2023-02-17T13:28:51.628Z,102823.53
2023-02-17T13:31:22.194Z,102816.81
2023-02-17T13:33:50.724Z,102817.50
2023-02-17T13:36:28.161Z,102800.75
2023-02-17T13:39:04.555Z,102803.09
2023-02-17T13:41:49.636Z,102799.56
2023-02-17T13:44:40.681Z,102796.75
2023-02-17T13:47:17.736Z,102808.69
2023-02-17T13:49:52.689Z,102802.78
2023-02-17T13:52:24.781Z,102803.47
2023-02-17T13:54:56.600Z,102804.47
2023-02-17T13:57:25.478Z,102799.94
2023-02-17T13:59:52.204Z,102799.09
2023-02-17T14:02:35.405Z,102800.09
2023-02-17T14:05:16.821Z,102798.25
2023-02-17T14:07:47.478Z,102794.72
2023-02-17T14:10:25.736Z,102794.88
2023-02-17T14:12:53.590Z,102795.22
2023-02-17T14:15:27.228Z,102794.03
2023-02-17T14:17:54.712Z,102790.34
2023-02-17T14:20:33.737Z,102789.69
2023-02-17T14:23:12.779Z,102793.03
2023-02-17T14:25:46.533Z,102794.38
2023-02-17T14:28:27.972Z,102797.91
2023-02-17T14:30:54.950Z,102800.09
2023-02-17T14:33:25.016Z,102794.19
2023-02-17T14:36:00.641Z,102795.03
2023-02-17T14:38:29.255Z,102794.19
2023-02-17T14:40:56.100Z,102789.50
2023-02-17T14:43:23.180Z,102786.31
2023-02-17T14:45:50.782Z,102792.38
2023-02-17T14:48:18.175Z,102793.53
2023-02-17T14:50:45.682Z,102788.84
2023-02-17T14:53:18.357Z,102788.34
2023-02-17T14:55:50.631Z,102787.84
2023-02-17T14:58:29.050Z,102788.19
2023-02-17T15:00:56.521Z,102784.66
2023-02-17T15:03:23.419Z,102788.34
2023-02-17T15:05:50.581Z,102791.22
2023-02-17T15:08:21.342Z,102796.59
2023-02-17T15:10:49.191Z,102795.91
2023-02-17T15:13:20.905Z,102785.31
2023-02-17T15:15:49.414Z,102782.47
2023-02-17T15:18:18.692Z,102778.09
2023-02-17T15:20:49.614Z,102774.75
2023-02-17T15:23:22.501Z,102776.63
2023-02-17T15:25:50.060Z,102779.59
2023-02-17T15:28:19.796Z,102777.09
2023-02-17T15:30:51.407Z,102777.59
2023-02-17T15:33:18.710Z,102780.47
2023-02-17T15:35:53.680Z,102777.25
2023-02-17T15:38:21.010Z,102774.09
2023-02-17T15:40:48.028Z,102770.91
2023-02-17T15:43:22.658Z,102772.25
2023-02-17T15:45:49.688Z,102768.03
2023-02-17T15:48:26.306Z,102767.03
2023-02-17T15:50:54.049Z,102767.22
2023-02-17T15:53:20.858Z,102766.88
2023-02-17T15:55:48.567Z,102770.88
2023-02-17T15:58:21.242Z,102772.25
2023-02-17T16:00:52.013Z,102764.66
2023-02-17T16:03:18.944Z,102770.72
2023-02-17T16:05:45.943Z,102770.91
2023-02-17T16:08:12.737Z,102772.06
2023-02-17T16:10:42.441Z,102768.88
2023-02-17T16:13:14.413Z,102768.88
2023-02-17T16:15:42.689Z,102773.91
2023-02-17T16:18:27.494Z,102767.53
2023-02-17T16:20:54.201Z,102771.41
2023-02-17T16:23:21.124Z,102776.06
2023-02-17T16:25:50.180Z,102778.25
2023-02-17T16:28:22.041Z,102781.97
2023-02-17T16:30:50.990Z,102784.94
2023-02-17T16:33:18.925Z,102781.59
2023-02-17T16:35:45.777Z,102780.78
2023-02-17T16:38:22.597Z,102781.25
2023-02-17T16:40:52.248Z,102786.97
2023-02-17T16:43:22.301Z,102772.72
2023-02-17T16:45:56.549Z,102784.09
2023-02-17T16:48:25.795Z,102782.91
2023-02-17T16:50:52.683Z,102792.66
2023-02-17T16:53:19.838Z,102789.97
2023-02-17T16:55:46.678Z,102789.59
2023-02-17T16:58:16.967Z,102787.25
2023-02-17T17:00:46.483Z,102785.56
2023-02-17T17:03:13.655Z,102786.56
2023-02-17T17:05:41.241Z,102789.22
2023-02-17T17:08:11.262Z,102794.56
2023-02-17T17:10:40.561Z,102799.91
2023-02-17T17:13:07.532Z,102798.53
2023-02-17T17:15:41.218Z,102790.47
2023-02-17T17:18:09.526Z,102799.31
2023-02-17T17:20:41.645Z,102798.25
2023-02-17T17:23:11.936Z,102804.75
2023-02-17T17:25:41.142Z,102810.22
2023-02-17T17:28:08.706Z,102811.88
2023-02-17T17:30:35.840Z,102814.72
2023-02-17T17:33:02.668Z,102801.94
2023-02-17T17:35:30.300Z,102807.59
2023-02-17T17:37:58.742Z,102807.94
2023-02-17T17:40:31.256Z,102812.91
2023-02-17T17:42:58.004Z,102809.41
2023-02-17T17:45:25.413Z,102815.06
2023-02-17T17:47:52.358Z,102820.72
2023-02-17T17:50:23.394Z,102825.59
2023-02-17T17:52:50.262Z,102826.88
2023-02-17T17:55:17.015Z,102827.19
2023-02-17T17:57:43.899Z,102829.34
2023-02-17T18:00:14.253Z,102827.97
2023-02-17T18:02:43.916Z,102824.91
2023-02-17T18:05:13.036Z,102827.03
2023-02-17T18:07:42.724Z,102834.72
2023-02-17T18:10:11.702Z,102838.53
2023-02-17T18:12:38.821Z,102831.97
2023-02-17T18:15:07.372Z,102843.59
2023-02-17T18:17:37.825Z,102849.91
2023-02-17T18:20:05.973Z,102852.91
2023-02-17T18:22:32.726Z,102855.75
2023-02-17T18:25:00.127Z,102860.25
2023-02-17T18:27:26.992Z,102863.50
2023-02-17T18:29:57.020Z,102858.31
2023-02-17T18:32:24.767Z,102871.00
2023-02-17T18:34:51.514Z,102871.75
2023-02-17T18:37:18.254Z,102877.25
2023-02-17T18:39:45.003Z,102878.38
2023-02-17T18:42:11.821Z,102872.22
2023-02-17T18:44:38.617Z,102871.50
2023-02-17T18:47:05.422Z,102874.63
2023-02-17T18:49:32.161Z,102868.06
2023-02-17T18:51:58.910Z,102868.31
2023-02-17T18:54:25.761Z,102870.16
2023-02-17T18:56:52.759Z,102879.19
2023-02-17T18:59:19.469Z,102870.06
2023-02-17T19:01:46.245Z,102867.38
2023-02-17T19:04:13.105Z,102873.34
2023-02-17T19:06:40.447Z,102873.50
2023-02-17T19:09:07.401Z,102878.69
2023-02-17T19:11:34.336Z,102880.34
2023-02-17T19:14:01.969Z,102875.31
2023-02-17T19:16:30.921Z,102876.47
2023-02-17T19:18:58.452Z,102882.28
2023-02-17T19:21:25.449Z,102878.78
2023-02-17T19:23:52.616Z,102883.72
2023-02-17T19:26:20.481Z,102887.66
2023-02-17T19:28:47.495Z,102887.25
2023-02-17T19:31:18.192Z,102887.41
2023-02-17T19:33:45.813Z,102883.06
2023-02-17T19:36:16.090Z,102887.16
2023-02-17T19:38:43.145Z,102883.38
2023-02-17T19:41:11.631Z,102885.06
2023-02-17T19:43:38.661Z,102883.81
2023-02-17T19:46:05.884Z,102882.13
2023-02-17T19:48:33.149Z,102881.16
2023-02-17T19:51:06.176Z,102874.09
2023-02-17T19:53:34.231Z,102876.63
2023-02-17T19:56:17.297Z,102877.47
2023-02-17T19:58:45.307Z,102878.03
2023-02-17T20:01:22.640Z,102882.13
2023-02-17T20:03:49.570Z,102879.72
2023-02-17T20:06:23.310Z,102880.44
2023-02-17T20:08:59.173Z,102875.25
2023-02-17T20:11:26.694Z,102881.97
2023-02-17T20:13:53.694Z,102883.50
2023-02-17T20:16:20.567Z,102886.31
2023-02-17T20:18:49.016Z,102882.94
2023-02-17T20:21:21.836Z,102880.97
2023-02-17T20:23:48.793Z,102889.13
2023-02-17T20:26:25.392Z,102877.03
2023-02-17T20:28:52.966Z,102881.94
2023-02-17T20:31:20.296Z,102880.41
2023-02-17T20:33:47.566Z,102876.75
2023-02-17T20:36:14.430Z,102877.75
2023-02-17T20:38:41.807Z,102883.09
2023-02-17T20:41:13.970Z,102881.09
2023-02-17T20:43:40.966Z,102890.06
2023-02-17T20:46:10.994Z,102889.63
2023-02-17T20:48:38.040Z,102884.25
2023-02-17T20:51:05.810Z,102887.22
2023-02-17T20:53:32.636Z,102882.03
2023-02-17T20:55:59.389Z,102876.41
2023-02-17T20:58:26.217Z,102876.09
2023-02-17T21:00:52.983Z,102882.69
2023-02-17T21:03:19.811Z,102878.06
2023-02-17T21:05:46.882Z,102882.41
2023-02-17T21:08:13.642Z,102883.84
2023-02-17T21:10:40.658Z,102894.09
2023-02-17T21:13:07.429Z,102898.84
2023-02-17T21:15:34.856Z,102900.09
2023-02-17T21:18:01.741Z,102896.91
2023-02-17T21:20:28.544Z,102900.81
2023-02-17T21:22:55.309Z,102904.78
2023-02-17T21:25:22.052Z,102903.06
2023-02-17T21:27:48.860Z,102900.81
2023-02-17T21:30:15.813Z,102897.00
2023-02-17T21:32:42.842Z,102896.31
2023-02-17T21:35:11.178Z,102897.56
2023-02-17T21:37:39.023Z,102893.59
2023-02-17T21:40:10.705Z,102888.03
2023-02-17T21:42:56.674Z,102893.13
2023-02-17T21:45:24.214Z,102888.63
2023-02-17T21:47:51.403Z,102885.00
2023-02-17T21:50:19.181Z,102884.81
2023-02-17T21:52:45.945Z,102884.00
2023-02-17T21:55:12.677Z,102888.84
2023-02-17T21:57:39.457Z,102887.22
2023-02-17T22:00:07.000Z,102881.81
2023-02-17T22:02:39.162Z,102878.81
2023-02-17T22:05:07.669Z,102886.66
2023-02-17T22:07:35.014Z,102883.44
2023-02-17T22:10:02.889Z,102886.97
2023-02-17T22:12:29.662Z,102881.44
2023-02-17T22:14:57.758Z,102884.44
2023-02-17T22:17:24.519Z,102882.63
2023-02-17T22:19:51.274Z,102886.97
2023-02-17T22:22:18.097Z,102884.88
2023-02-17T22:24:44.867Z,102882.00
2023-02-17T22:27:11.626Z,102888.53
2023-02-17T22:29:38.337Z,102887.53
2023-02-17T22:32:05.247Z,102882.44
2023-02-17T22:34:32.102Z,102878.34
2023-02-17T22:36:58.962Z,102886.47
2023-02-17T22:39:25.722Z,102879.91
2023-02-17T22:41:52.521Z,102885.63
2023-02-17T22:44:19.295Z,102888.16
2023-02-17T22:46:46.078Z,102883.78
2023-02-17T22:49:12.849Z,102889.97
2023-02-17T22:51:40.556Z,102885.09
2023-02-17T22:54:08.303Z,102890.56
2023-02-17T22:56:35.525Z,102887.53
2023-02-17T22:59:03.968Z,102891.72
2023-02-17T23:01:34.616Z,102891.72
2023-02-17T23:04:02.029Z,102890.75
2023-02-17T23:06:31.933Z,102890.19
2023-02-17T23:09:00.021Z,102890.72
2023-02-17T23:11:49.463Z,102888.47
2023-02-17T23:14:30.757Z,102890.03
2023-02-17T23:17:01.167Z,102891.25
2023-02-17T23:19:29.354Z,102884.50
2023-02-17T23:21:59.378Z,102882.22
2023-02-17T23:24:27.219Z,102884.25
2023-02-17T23:26:56.188Z,102892.22
2023-02-17T23:29:23.569Z,102900.22
2023-02-17T23:31:50.438Z,102891.13
2023-02-17T23:34:17.640Z,102889.34
2023-02-17T23:36:45.701Z,102885.75
2023-02-17T23:39:16.247Z,102890.47
2023-02-17T23:41:43.689Z,102888.31
2023-02-17T23:44:11.746Z,102888.44
2023-02-17T23:46:39.950Z,102884.69
2023-02-17T23:49:06.808Z,102885.28
2023-02-17T23:51:33.588Z,102882.47
2023-02-17T23:54:00.407Z,102884.06
2023-02-17T23:56:32.806Z,102886.34
2023-02-17T23:59:00.003Z,102881.91
